Time;durP1;ratioP1;P1;durP2;ratioP2;P2;SDS_P1;SDS_P2;PMS_P1;PMS_P2;Temp;Humidity;BMP_temperature;BMP_pressure;BME280_temperature;BME280_humidity;BME280_pressure;Samples;Min_cycle;Max_cycle;Signal;HPM_P1;HPM_P2
2021/11/05 00:00:25;;;;;;;48.35;27.17;;;;;;;9.45;100.00;100277.69;1656035;86;21086;-71
2021/11/05 00:02:54;;;;;;;49.65;25.43;;;;;;;9.44;100.00;100288.66;1644115;86;21085;-71
2021/11/05 00:05:22;;;;;;;56.80;30.20;;;;;;;9.40;100.00;100279.14;1663530;86;21140;-70
2021/11/05 00:07:48;;;;;;;45.25;25.17;;;;;;;9.40;100.00;100268.63;1664535;86;21029;-71
2021/11/05 00:10:15;;;;;;;46.10;26.75;;;;;;;9.40;100.00;100259.42;1642635;86;21084;-70
2021/11/05 00:12:43;;;;;;;45.38;25.50;;;;;;;9.43;100.00;100256.72;1637153;87;21077;-70
2021/11/05 00:15:10;;;;;;;44.58;25.77;;;;;;;9.48;100.00;100251.75;1637041;87;21096;-73
2021/11/05 00:17:37;;;;;;;53.00;27.58;;;;;;;9.48;100.00;100258.33;1636850;87;21065;-70
2021/11/05 00:20:46;;;;;;;48.58;29.12;;;;;;;9.55;100.00;100249.38;1795859;79;28098;-71
2021/11/05 00:23:14;;;;;;;45.52;25.52;;;;;;;9.50;100.00;100235.05;1756105;81;21291;-71
2021/11/05 00:25:40;;;;;;;49.42;27.37;;;;;;;9.54;100.00;100235.80;1756028;81;21126;-71
2021/11/05 00:28:07;;;;;;;41.80;24.95;;;;;;;9.55;100.00;100230.97;1756039;81;21010;-70
2021/11/05 00:30:34;;;;;;;46.65;26.50;;;;;;;9.58;100.00;100230.86;1756007;81;21058;-71
2021/11/05 00:33:00;;;;;;;46.98;28.15;;;;;;;9.58;100.00;100229.08;1756277;81;21069;-70
2021/11/05 00:35:27;;;;;;;38.65;22.77;;;;;;;9.60;100.00;100223.79;1755845;81;21025;-70
2021/11/05 00:37:54;;;;;;;44.90;27.15;;;;;;;9.61;100.00;100205.77;1749525;81;21161;-70
2021/11/05 00:40:21;;;;;;;43.85;26.07;;;;;;;9.63;100.00;100202.19;1721642;81;21403;-70
2021/11/05 00:42:48;;;;;;;39.73;24.85;;;;;;;9.66;100.00;100205.16;1738652;82;21014;-70
2021/11/05 00:45:14;;;;;;;43.33;25.97;;;;;;;9.69;100.00;100204.23;1747689;82;21046;-71
2021/11/05 00:47:41;;;;;;;42.95;25.08;;;;;;;9.71;100.00;100205.02;1747243;82;21770;-70
2021/11/05 00:50:08;;;;;;;46.40;26.25;;;;;;;9.70;100.00;100197.59;1748320;82;22110;-70
2021/11/05 00:52:34;;;;;;;39.27;23.07;;;;;;;9.71;100.00;100195.38;1725999;81;21065;-70
2021/11/05 00:55:01;;;;;;;47.60;25.82;;;;;;;9.74;100.00;100209.73;1685785;85;21081;-72
2021/11/05 00:57:29;;;;;;;44.63;24.43;;;;;;;9.71;100.00;100216.42;1684311;85;21060;-71
2021/11/05 00:59:57;;;;;;;43.55;24.72;;;;;;;9.71;100.00;100224.31;1706077;84;21076;-71
2021/11/05 01:02:24;;;;;;;51.68;27.48;;;;;;;9.71;100.00;100236.58;1701660;84;21534;-70
2021/11/05 01:04:50;;;;;;;48.80;26.05;;;;;;;9.69;100.00;100236.64;1702424;84;21117;-71
2021/11/05 01:07:17;;;;;;;47.05;25.75;;;;;;;9.70;100.00;100234.87;1701901;84;21132;-72
2021/11/05 01:09:43;;;;;;;40.63;24.65;;;;;;;9.69;100.00;100230.07;1694534;84;21514;-71
2021/11/05 01:12:11;;;;;;;41.53;23.47;;;;;;;9.70;100.00;100222.58;1673861;85;21103;-71
2021/11/05 01:14:38;;;;;;;47.13;26.30;;;;;;;9.73;100.00;100222.50;1674085;85;21194;-71
2021/11/05 01:17:04;;;;;;;47.13;26.57;;;;;;;9.72;100.00;100223.85;1673758;85;22202;-70
2021/11/05 01:19:32;;;;;;;45.80;25.75;;;;;;;9.73;100.00;100236.96;1671928;85;21135;-69
2021/11/05 01:21:59;;;;;;;44.23;25.40;;;;;;;9.72;100.00;100225.16;1669051;84;21080;-69
2021/11/05 01:24:25;;;;;;;42.95;25.08;;;;;;;9.73;100.00;100231.70;1668922;86;21053;-70
2021/11/05 01:26:52;;;;;;;48.05;26.73;;;;;;;9.74;100.00;100222.03;1678057;84;21789;-71
2021/11/05 01:29:19;;;;;;;48.23;28.70;;;;;;;9.73;100.00;100215.92;1690293;84;21034;-72
2021/11/05 01:31:46;;;;;;;42.62;24.72;;;;;;;9.75;100.00;100218.02;1689538;84;21038;-70
2021/11/05 01:34:13;;;;;;;49.77;27.58;;;;;;;9.75;100.00;100203.55;1688675;84;21591;-71
2021/11/05 01:36:40;;;;;;;50.20;27.85;;;;;;;9.75;100.00;100191.72;1687817;84;21087;-71
2021/11/05 01:39:06;;;;;;;39.00;23.38;;;;;;;9.79;100.00;100195.98;1661362;86;21159;-70
2021/11/05 01:41:34;;;;;;;46.55;26.95;;;;;;;9.81;100.00;100206.00;1634229;87;21637;-71
2021/11/05 01:44:00;;;;;;;42.53;24.95;;;;;;;9.78;100.00;100195.59;1608514;87;21120;-71
2021/11/05 01:46:27;;;;;;;46.95;27.42;;;;;;;9.80;100.00;100195.52;1638407;86;21633;-70
2021/11/05 01:48:54;;;;;;;47.35;26.77;;;;;;;9.79;100.00;100195.98;1659082;86;21086;-70
2021/11/05 01:51:21;;;;;;;44.05;25.62;;;;;;;9.80;100.00;100199.03;1696398;84;22176;-70
2021/11/05 01:53:48;;;;;;;47.70;26.60;;;;;;;9.79;100.00;100194.66;1696393;84;21022;-70
2021/11/05 01:56:14;;;;;;;43.90;26.82;;;;;;;9.82;100.00;100197.22;1696658;84;21104;-70
2021/11/05 01:58:41;;;;;;;40.03;24.37;;;;;;;9.82;100.00;100195.89;1696343;84;21563;-68
2021/11/05 02:01:08;;;;;;;49.65;28.50;;;;;;;9.84;100.00;100197.99;1689086;84;21202;-69
2021/11/05 02:03:35;;;;;;;50.20;28.40;;;;;;;9.85;100.00;100207.63;1668285;86;21141;-70
2021/11/05 02:06:01;;;;;;;52.60;29.77;;;;;;;9.86;100.00;100214.59;1668282;86;22225;-69
2021/11/05 02:08:28;;;;;;;49.00;27.27;;;;;;;9.86;100.00;100208.02;1668214;86;21687;-69
2021/11/05 02:10:55;;;;;;;48.35;27.40;;;;;;;9.90;100.00;100217.14;1668461;86;21123;-70
2021/11/05 02:13:22;;;;;;;48.23;28.25;;;;;;;9.91;100.00;100218.84;1636019;87;21109;-71
2021/11/05 02:15:48;;;;;;;46.40;25.85;;;;;;;9.91;100.00;100216.22;1636134;87;21524;-70
2021/11/05 02:18:18;;;;;;;45.83;27.98;;;;;;;9.92;100.00;100206.12;1632881;87;21069;-72
2021/11/05 02:20:46;;;;;;;49.42;27.85;;;;;;;9.92;100.00;100204.80;1670628;85;21097;-71
2021/11/05 02:23:12;;;;;;;42.93;24.52;;;;;;;9.94;100.00;100202.52;1685489;85;21113;-69
2021/11/05 02:25:41;;;;;;;51.08;29.60;;;;;;;9.96;100.00;100202.45;1689648;85;21125;-71
2021/11/05 02:28:08;;;;;;;38.40;23.02;;;;;;;9.98;100.00;100191.42;1712766;83;21071;-70
2021/11/05 02:30:34;;;;;;;42.88;25.05;;;;;;;10.01;100.00;100192.66;1714036;83;21097;-70
2021/11/05 02:33:01;;;;;;;52.05;29.25;;;;;;;10.02;100.00;100198.31;1713781;83;21084;-69
2021/11/05 02:35:27;;;;;;;44.48;25.57;;;;;;;10.04;100.00;100195.17;1687192;83;21114;-72
2021/11/05 02:37:54;;;;;;;45.35;25.80;;;;;;;10.05;100.00;100205.66;1714046;83;21088;-71
2021/11/05 02:40:20;;;;;;;30.17;18.32;;;;;;;10.09;100.00;100203.77;1713543;83;21143;-71
2021/11/05 02:42:47;;;;;;;44.42;24.90;;;;;;;10.13;100.00;100204.53;1713724;83;21061;-71
2021/11/05 02:45:13;;;;;;;51.48;26.87;;;;;;;10.13;100.00;100213.28;1713993;82;21583;-71
2021/11/05 02:47:40;;;;;;;46.08;27.05;;;;;;;10.14;100.00;100216.30;1713721;83;21580;-70
2021/11/05 02:50:14;;;;;;;51.23;27.85;;;;;;;10.15;100.00;100223.77;1713906;83;21639;-71
2021/11/05 02:52:41;;;;;;;52.67;29.35;;;;;;;10.12;100.00;100226.02;1714051;83;21132;-72
2021/11/05 02:55:09;;;;;;;45.03;24.95;;;;;;;10.14;100.00;100211.04;1713853;82;22075;-69
2021/11/05 02:57:38;;;;;;;51.85;28.95;;;;;;;10.15;100.00;100220.67;1713573;83;21104;-69
2021/11/05 03:00:06;;;;;;;40.03;23.32;;;;;;;10.17;100.00;100219.28;1713606;83;21089;-72
2021/11/05 03:02:34;;;;;;;48.25;28.62;;;;;;;10.20;100.00;100223.14;1713650;83;21068;-72
2021/11/05 03:05:01;;;;;;;54.45;28.10;;;;;;;10.21;100.00;100214.33;1694168;83;21146;-71
2021/11/05 03:07:27;;;;;;;44.93;27.90;;;;;;;10.23;100.00;100209.87;1684974;85;21085;-71
2021/11/05 03:09:53;;;;;;;41.77;25.77;;;;;;;10.25;100.00;100201.01;1685126;85;21043;-70
2021/11/05 03:12:21;;;;;;;42.03;25.17;;;;;;;10.27;100.00;100211.50;1685076;84;21127;-69
2021/11/05 03:14:48;;;;;;;47.62;29.25;;;;;;;10.27;100.00;100209.71;1685353;84;21124;-70
2021/11/05 03:17:14;;;;;;;47.60;27.87;;;;;;;10.26;100.00;100202.75;1685086;85;21238;-72
2021/11/05 03:19:42;;;;;;;43.92;25.88;;;;;;;10.27;100.00;100195.23;1683196;84;21256;-71
2021/11/05 03:22:10;;;;;;;45.17;26.97;;;;;;;10.29;100.00;100205.76;1673140;85;22027;-71
2021/11/05 03:24:39;;;;;;;44.33;25.43;;;;;;;10.33;100.00;100206.49;1673336;85;21130;-72
2021/11/05 03:27:06;;;;;;;44.05;25.88;;;;;;;10.34;100.00;100197.70;1673159;85;21140;-71
2021/11/05 03:29:34;;;;;;;56.65;28.40;;;;;;;10.36;100.00;100202.45;1673136;85;21057;-72
2021/11/05 03:32:01;;;;;;;42.08;24.63;;;;;;;10.38;100.00;100205.90;1672928;85;21033;-72
2021/11/05 03:34:27;;;;;;;49.27;28.70;;;;;;;10.37;100.00;100191.00;1673380;85;21038;-73
2021/11/05 03:36:54;;;;;;;50.00;29.63;;;;;;;10.40;100.00;100190.88;1673060;85;21058;-72
2021/11/05 03:39:20;;;;;;;48.13;25.15;;;;;;;10.42;100.00;100188.63;1673150;85;21057;-73
2021/11/05 03:41:46;;;;;;;45.88;27.95;;;;;;;10.43;100.00;100180.27;1672891;85;21532;-72
2021/11/05 03:44:13;;;;;;;36.48;23.35;;;;;;;10.45;100.00;100176.66;1672931;85;21159;-72
2021/11/05 03:46:40;;;;;;;49.65;29.85;;;;;;;10.49;100.00;100182.69;1673227;85;21065;-72
2021/11/05 03:49:06;;;;;;;50.25;29.02;;;;;;;10.48;100.00;100186.22;1673191;85;21041;-71
2021/11/05 03:51:33;;;;;;;48.20;27.60;;;;;;;10.49;100.00;100178.73;1672901;85;21126;-72
2021/11/05 03:54:01;;;;;;;50.58;29.87;;;;;;;10.51;100.00;100183.46;1673201;85;21145;-71
2021/11/05 03:56:28;;;;;;;49.00;28.62;;;;;;;10.53;100.00;100186.91;1685213;84;21043;-70
2021/11/05 03:58:55;;;;;;;47.35;28.67;;;;;;;10.54;100.00;100186.01;1688780;83;21107;-70
2021/11/05 04:01:21;;;;;;;52.88;29.67;;;;;;;10.54;100.00;100187.33;1682024;84;21081;-71
2021/11/05 04:03:48;;;;;;;53.85;30.12;;;;;;;10.57;100.00;100196.42;1688014;84;21047;-72
2021/11/05 04:06:16;;;;;;;56.37;31.70;;;;;;;10.56;100.00;100196.03;1692060;84;21592;-71
2021/11/05 04:08:42;;;;;;;51.73;30.10;;;;;;;10.57;100.00;100210.05;1665725;85;21072;-71
2021/11/05 04:11:09;;;;;;;49.67;28.90;;;;;;;10.60;100.00;100201.56;1668736;85;21100;-73
2021/11/05 04:13:36;;;;;;;53.05;29.80;;;;;;;10.60;100.00;100196.30;1680660;85;21060;-72
2021/11/05 04:16:03;;;;;;;45.75;26.60;;;;;;;10.61;100.00;100198.03;1718722;82;21595;-73
2021/11/05 04:18:30;;;;;;;54.30;30.62;;;;;;;10.63;100.00;100195.36;1718348;83;21144;-72
2021/11/05 04:20:57;;;;;;;48.70;27.80;;;;;;;10.65;100.00;100189.11;1711297;82;21054;-72
2021/11/05 04:23:24;;;;;;;46.10;26.75;;;;;;;10.66;100.00;100188.19;1715424;82;21011;-71
2021/11/05 04:25:50;;;;;;;53.85;30.97;;;;;;;10.68;100.00;100190.31;1722527;82;21579;-71
2021/11/05 04:28:16;;;;;;;49.08;28.95;;;;;;;10.73;100.00;100211.22;1720771;82;21041;-69
2021/11/05 04:30:44;;;;;;;51.70;28.92;;;;;;;10.75;100.00;100207.22;1720849;82;21533;-73
2021/11/05 04:33:11;;;;;;;46.85;27.58;;;;;;;10.75;100.00;100192.73;1721478;82;21537;-71
2021/11/05 04:35:38;;;;;;;41.33;24.12;;;;;;;10.79;100.00;100201.78;1732556;82;21113;-72
2021/11/05 04:38:06;;;;;;;47.48;27.67;;;;;;;10.81;100.00;100197.75;1732731;82;21117;-74
2021/11/05 04:40:33;;;;;;;48.40;27.98;;;;;;;10.83;100.00;100200.73;1732553;82;21132;-69
2021/11/05 04:42:59;;;;;;;50.95;28.32;;;;;;;10.87;100.00;100194.90;1732619;82;21132;-70
2021/11/05 04:45:26;;;;;;;46.68;28.87;;;;;;;10.88;100.00;100192.66;1731548;82;22159;-69
2021/11/05 04:47:53;;;;;;;43.90;26.23;;;;;;;10.89;100.00;100183.39;1716793;82;21327;-70
2021/11/05 04:50:19;;;;;;;45.50;27.87;;;;;;;10.91;100.00;100188.61;1728510;82;21086;-70
2021/11/05 04:52:48;;;;;;;40.73;24.98;;;;;;;10.94;100.00;100181.89;1719060;82;21561;-71
2021/11/05 04:55:17;;;;;;;47.53;26.52;;;;;;;10.96;100.00;100181.84;1706508;82;21247;-71
2021/11/05 04:57:44;;;;;;;43.00;27.32;;;;;;;11.00;100.00;100184.31;1714152;81;21085;-71
2021/11/05 05:00:13;;;;;;;43.00;24.75;;;;;;;11.01;100.00;100180.74;1706505;82;21081;-71
2021/11/05 05:02:41;;;;;;;42.07;25.77;;;;;;;11.02;100.00;100183.80;1715708;82;21045;-70
2021/11/05 05:05:08;;;;;;;45.48;26.07;;;;;;;11.04;100.00;100191.19;1725827;82;21006;-71
2021/11/05 05:07:35;;;;;;;31.62;18.70;;;;;;;11.05;100.00;100187.62;1720083;82;22401;-69
2021/11/05 05:10:01;;;;;;;41.08;24.82;;;;;;;11.08;100.00;100183.54;1718273;82;21058;-71
2021/11/05 05:12:28;;;;;;;47.67;27.02;;;;;;;11.12;100.00;100185.15;1714358;82;21042;-70
2021/11/05 05:14:54;;;;;;;43.65;23.60;;;;;;;11.16;100.00;100180.63;1720670;82;21053;-70
2021/11/05 05:17:21;;;;;;;41.25;24.10;;;;;;;11.17;100.00;100188.08;1718379;82;21124;-69
2021/11/05 05:19:48;;;;;;;38.28;22.67;;;;;;;11.20;100.00;100189.27;1718661;82;21145;-69
2021/11/05 05:22:14;;;;;;;46.63;26.25;;;;;;;11.22;100.00;100202.78;1731638;82;21065;-69
2021/11/05 05:24:41;;;;;;;38.50;23.18;;;;;;;11.22;100.00;100203.25;1735504;82;21030;-67
2021/11/05 05:27:08;;;;;;;45.25;23.92;;;;;;;11.23;100.00;100208.94;1733322;82;21085;-69
2021/11/05 05:29:34;;;;;;;46.48;27.10;;;;;;;11.21;100.00;100198.44;1643949;85;21080;-71
2021/11/05 05:32:01;;;;;;;39.78;23.75;;;;;;;11.22;100.00;100200.14;1664561;85;21151;-70
2021/11/05 05:34:27;;;;;;;44.20;24.52;;;;;;;11.23;100.00;100201.03;1668006;85;21116;-71
2021/11/05 05:36:54;;;;;;;46.25;26.50;;;;;;;11.22;100.00;100191.38;1729220;82;21284;-71
2021/11/05 05:39:21;;;;;;;36.75;21.95;;;;;;;11.25;100.00;100183.34;1724965;82;21076;-70
2021/11/05 05:41:47;;;;;;;47.03;26.07;;;;;;;11.22;100.00;100174.25;1747265;82;21072;-70
2021/11/05 05:44:13;;;;;;;47.15;26.52;;;;;;;11.29;100.00;100186.27;1747929;82;21107;-70
2021/11/05 05:46:40;;;;;;;37.53;21.42;;;;;;;11.30;100.00;100187.54;1741135;82;21589;-71
2021/11/05 05:49:06;;;;;;;44.05;26.62;;;;;;;11.32;100.00;100195.39;1727468;82;21634;-70
2021/11/05 05:51:35;;;;;;;41.68;25.82;;;;;;;11.36;100.00;100191.70;1716116;83;21563;-71
2021/11/05 05:54:02;;;;;;;47.23;24.52;;;;;;;11.38;100.00;100192.50;1728101;82;21050;-71
2021/11/05 05:56:29;;;;;;;43.38;24.77;;;;;;;11.39;100.00;100193.35;1747786;82;21140;-71
2021/11/05 05:58:56;;;;;;;52.40;26.75;;;;;;;11.42;100.00;100204.66;1748113;82;21077;-70
2021/11/05 06:01:22;;;;;;;48.33;27.22;;;;;;;11.43;100.00;100208.14;1717858;82;21085;-68
2021/11/05 06:03:49;;;;;;;47.17;26.55;;;;;;;11.44;100.00;100209.41;1723676;82;21174;-71
2021/11/05 06:06:15;;;;;;;43.35;26.40;;;;;;;11.49;100.00;100210.08;1747728;82;21069;-69
2021/11/05 06:08:42;;;;;;;48.05;26.62;;;;;;;11.52;100.00;100217.01;1748123;82;21506;-69
2021/11/05 06:11:09;;;;;;;42.95;24.65;;;;;;;11.54;100.00;100222.62;1726735;82;21036;-72
2021/11/05 06:13:36;;;;;;;43.38;24.87;;;;;;;11.60;100.00;100215.41;1717821;83;21593;-70
2021/11/05 06:16:03;;;;;;;45.55;26.33;;;;;;;11.62;100.00;100218.38;1726026;82;22018;-69
2021/11/05 06:18:30;;;;;;;48.83;26.48;;;;;;;11.65;100.00;100230.58;1734374;82;21615;-70
2021/11/05 06:20:56;;;;;;;49.95;26.15;;;;;;;11.67;100.00;100228.28;1747245;81;21945;-71
2021/11/05 06:23:23;;;;;;;46.53;23.10;;;;;;;11.73;100.00;100231.12;1746769;82;21521;-71
2021/11/05 06:25:51;;;;;;;54.30;26.48;;;;;;;11.76;100.00;100238.93;1747720;82;21042;-71
2021/11/05 06:28:17;;;;;;;43.17;24.72;;;;;;;11.78;100.00;100230.50;1726379;81;21085;-71
2021/11/05 06:30:44;;;;;;;49.65;26.82;;;;;;;11.82;100.00;100234.70;1738567;82;21159;-71
2021/11/05 06:33:10;;;;;;;53.10;27.48;;;;;;;11.83;100.00;100231.16;1664638;85;21771;-69
2021/11/05 06:35:37;;;;;;;47.90;25.50;;;;;;;11.87;100.00;100239.39;1665790;85;21171;-70
2021/11/05 06:38:03;;;;;;;49.13;27.20;;;;;;;11.88;100.00;100246.38;1733275;82;21033;-70
2021/11/05 06:40:30;;;;;;;45.95;25.50;;;;;;;11.90;100.00;100245.86;1736595;82;21083;-70
2021/11/05 06:42:56;;;;;;;41.45;24.02;;;;;;;11.94;100.00;100234.73;1719294;82;21152;-70
2021/11/05 06:45:27;;;;;;;45.63;25.92;;;;;;;11.95;100.00;100230.69;1733874;82;21136;-70
2021/11/05 06:47:52;;;;;;;44.35;23.50;;;;;;;11.99;100.00;100231.90;1724965;82;21108;-71
2021/11/05 06:50:18;;;;;;;47.88;26.82;;;;;;;12.01;100.00;100238.83;1726747;82;21069;-70
2021/11/05 06:52:45;;;;;;;42.98;25.10;;;;;;;12.04;100.00;100228.60;1735130;82;21065;-70
2021/11/05 06:55:11;;;;;;;40.33;22.20;;;;;;;12.08;100.00;100226.23;1680872;85;21575;-70
2021/11/05 06:57:39;;;;;;;45.38;23.38;;;;;;;12.11;100.00;100227.42;1730468;82;21142;-70
2021/11/05 07:00:08;;;;;;;40.70;22.30;;;;;;;12.14;100.00;100222.00;1746120;82;21092;-70
2021/11/05 07:02:41;;;;;;;45.38;25.17;;;;;;;12.17;100.00;100223.22;1747465;82;21072;-71
2021/11/05 07:05:10;;;;;;;42.75;23.40;;;;;;;12.21;100.00;100222.13;1734163;82;21060;-71
2021/11/05 07:07:36;;;;;;;47.05;23.52;;;;;;;12.23;100.00;100226.89;1721405;82;21049;-70
2021/11/05 07:10:04;;;;;;;47.60;24.75;;;;;;;12.26;100.00;100221.94;1740005;82;21101;-70
2021/11/05 07:12:30;;;;;;;41.68;22.37;;;;;;;12.28;100.00;100227.55;1734802;82;21025;-70
2021/11/05 07:14:57;;;;;;;46.90;24.90;;;;;;;12.33;100.00;100220.31;1736355;81;21533;-71
2021/11/05 07:17:25;;;;;;;39.98;22.20;;;;;;;12.37;100.00;100216.59;1732440;82;21552;-70
2021/11/05 07:19:51;;;;;;;44.38;23.10;;;;;;;12.42;100.00;100220.83;1730348;82;21041;-69
2021/11/05 07:22:18;;;;;;;48.33;24.15;;;;;;;12.47;100.00;100225.00;1712598;82;21107;-71
2021/11/05 07:24:45;;;;;;;47.35;24.98;;;;;;;12.50;100.00;100233.25;1729406;82;21243;-71
2021/11/05 07:27:14;;;;;;;47.53;23.57;;;;;;;12.55;100.00;100242.68;1730556;81;21077;-73
2021/11/05 07:29:42;;;;;;;49.60;26.00;;;;;;;12.58;100.00;100243.00;1723288;82;21145;-72
2021/11/05 07:32:09;;;;;;;40.23;22.10;;;;;;;12.60;100.00;100242.48;1720221;82;21118;-72
2021/11/05 07:34:37;;;;;;;44.23;23.38;;;;;;;12.63;100.00;100241.05;1731167;82;21492;-72
2021/11/05 07:37:14;;;;;;;47.05;25.25;;;;;;;12.67;100.00;100245.25;1733683;82;21070;-71
2021/11/05 07:39:37;;;;;;;44.93;22.07;;;;;;;12.68;100.00;100240.37;1733095;82;21003;-71
2021/11/05 07:42:04;;;;;;;51.40;25.30;;;;;;;12.70;100.00;100239.84;1718040;82;21094;-69
2021/11/05 07:44:30;;;;;;;41.45;21.52;;;;;;;12.74;100.00;100240.55;1717284;82;21101;-70
2021/11/05 07:46:57;;;;;;;44.05;22.32;;;;;;;12.77;100.00;100236.00;1716510;81;21416;-70
2021/11/05 07:49:23;;;;;;;43.80;23.70;;;;;;;12.77;100.00;100228.08;1718453;82;21050;-69
2021/11/05 07:51:50;;;;;;;50.15;24.57;;;;;;;12.82;100.00;100240.23;1654943;85;21050;-70
2021/11/05 07:54:17;;;;;;;55.08;28.73;;;;;;;12.83;100.00;100244.58;1679181;84;21658;-71
2021/11/05 07:56:43;;;;;;;51.60;26.55;;;;;;;12.82;100.00;100253.45;1679100;84;21647;-71
2021/11/05 07:59:10;;;;;;;51.00;26.93;;;;;;;12.83;100.00;100247.22;1682702;84;22214;-69
2021/11/05 08:01:36;;;;;;;54.13;28.07;;;;;;;12.83;100.00;100248.55;1659137;85;21112;-71
2021/11/05 08:04:04;;;;;;;47.70;25.23;;;;;;;12.84;100.00;100247.60;1660878;85;21077;-71
2021/11/05 08:06:30;;;;;;;55.58;27.73;;;;;;;12.88;100.00;100258.44;1657498;85;21117;-70
2021/11/05 08:08:58;;;;;;;56.30;29.10;;;;;;;12.85;100.00;100266.52;1677280;84;21723;-72
2021/11/05 08:11:26;;;;;;;47.98;26.05;;;;;;;12.86;100.00;100266.89;1688847;84;22142;-69
2021/11/05 08:13:53;;;;;;;52.98;28.45;;;;;;;12.89;100.00;100258.85;1674915;84;21068;-71
2021/11/05 08:16:19;;;;;;;45.55;24.82;;;;;;;12.90;100.00;100256.59;1670975;84;21188;-71
2021/11/05 08:18:45;;;;;;;57.08;27.93;;;;;;;12.93;100.00;100257.77;1686083;84;21125;-71
2021/11/05 08:21:12;;;;;;;56.88;28.40;;;;;;;12.96;100.00;100251.89;1688932;83;21104;-72
2021/11/05 08:23:38;;;;;;;47.78;24.65;;;;;;;12.98;100.00;100273.83;1674015;84;22177;-71
2021/11/05 08:26:06;;;;;;;54.75;29.15;;;;;;;12.99;100.00;100278.65;1675298;84;21080;-71
2021/11/05 08:28:34;;;;;;;56.83;28.87;;;;;;;13.00;100.00;100281.70;1663900;84;21128;-71
2021/11/05 08:31:00;;;;;;;56.25;28.70;;;;;;;13.01;100.00;100283.41;1690286;84;21073;-71
2021/11/05 08:33:28;;;;;;;58.78;29.25;;;;;;;13.01;100.00;100297.48;1665749;84;21697;-71
2021/11/05 08:35:55;;;;;;;47.80;25.88;;;;;;;13.03;100.00;100297.42;1669418;84;21131;-70
2021/11/05 08:38:22;;;;;;;55.67;27.05;;;;;;;13.05;100.00;100287.64;1650477;85;21072;-70
2021/11/05 08:40:52;;;;;;;59.25;29.67;;;;;;;13.09;100.00;100288.34;1665069;84;21061;-72
2021/11/05 08:43:21;;;;;;;48.17;26.33;;;;;;;13.12;100.00;100289.08;1736281;82;21116;-72
2021/11/05 08:45:47;;;;;;;54.65;28.55;;;;;;;13.14;100.00;100283.26;1740781;82;21109;-70
2021/11/05 08:48:14;;;;;;;62.98;30.15;;;;;;;13.17;100.00;100282.27;1740908;82;21480;-70
2021/11/05 08:50:41;;;;;;;59.85;30.45;;;;;;;13.19;100.00;100279.94;1711951;82;21556;-68
2021/11/05 08:53:08;;;;;;;54.98;29.55;;;;;;;13.23;100.00;100270.94;1741697;82;21030;-71
2021/11/05 08:55:38;;;;;;;64.82;30.88;;;;;;;13.28;100.00;100261.98;1741592;82;21658;-71
2021/11/05 08:58:06;;;;;;;53.55;29.25;;;;;;;13.31;100.00;100253.89;1740399;81;21557;-71
2021/11/05 09:00:33;;;;;;;56.13;27.67;;;;;;;13.35;100.00;100257.64;1741924;82;21088;-71
2021/11/05 09:03:03;;;;;;;55.35;25.97;;;;;;;13.41;100.00;100251.20;1740699;82;21082;-70
2021/11/05 09:05:35;;;;;;;55.50;27.37;;;;;;;13.46;100.00;100254.51;1675987;85;21085;-72
2021/11/05 09:08:02;;;;;;;51.28;28.10;;;;;;;13.51;100.00;100247.20;1676724;85;21577;-71
2021/11/05 09:10:30;;;;;;;60.28;28.25;;;;;;;13.55;100.00;100252.75;1676566;85;21128;-72
2021/11/05 09:12:57;;;;;;;53.75;27.22;;;;;;;13.60;100.00;100253.38;1740328;82;21086;-71
2021/11/05 09:15:28;;;;;;;58.78;27.98;;;;;;;13.64;100.00;100244.37;1676415;85;21058;-71
2021/11/05 09:17:55;;;;;;;;;;;;;;;13.70;100.00;100243.69;1679031;85;21122;-71
2021/11/05 09:20:21;;;;;;;53.50;26.52;;;;;;;13.75;100.00;100237.69;1692231;84;20723;-72
2021/11/05 09:22:48;;;;;;;49.23;24.20;;;;;;;13.80;100.00;100248.91;1692540;84;21133;-71
2021/11/05 09:25:14;;;;;;;50.85;27.15;;;;;;;13.84;100.00;100254.45;1676649;85;21133;-69
2021/11/05 09:27:43;;;;;;;47.85;25.15;;;;;;;13.91;100.00;100254.55;1740416;81;21537;-70
2021/11/05 09:30:10;;;;;;;50.65;26.70;;;;;;;13.95;100.00;100252.14;1740437;82;21621;-71
2021/11/05 09:32:37;;;;;;;56.45;28.85;;;;;;;14.01;100.00;100257.15;1740504;82;21640;-71
2021/11/05 09:35:06;;;;;;;57.40;28.98;;;;;;;14.09;100.00;100251.94;1676755;84;21018;-72
2021/11/05 09:37:36;;;;;;;60.55;29.85;;;;;;;14.15;100.00;100246.31;1676594;85;22179;-70
2021/11/05 09:40:04;;;;;;;50.58;24.37;;;;;;;14.18;100.00;100247.50;1740351;82;21082;-70
2021/11/05 09:42:34;;;;;;;59.25;28.55;;;;;;;14.20;100.00;100249.61;1676806;85;21082;-70
2021/11/05 09:45:00;;;;;;;57.10;28.95;;;;;;;14.22;100.00;100230.53;1740548;82;21391;-71
2021/11/05 09:47:28;;;;;;;48.73;24.92;;;;;;;14.23;100.00;100231.76;1740452;82;21058;-70
2021/11/05 09:49:54;;;;;;;50.98;27.30;;;;;;;14.25;100.00;100236.98;1676854;85;21909;-70
2021/11/05 09:52:21;;;;;;;43.35;25.08;;;;;;;14.28;100.00;100231.52;1740450;82;21046;-71
2021/11/05 09:54:49;;;;;;;44.83;24.70;;;;;;;14.31;100.00;100235.80;1676839;85;21183;-71
2021/11/05 09:57:16;;;;;;;50.67;26.87;;;;;;;14.35;100.00;100231.59;1676409;85;21280;-71
2021/11/05 09:59:42;;;;;;;51.10;27.32;;;;;;;14.40;100.00;100238.87;1676925;85;21066;-71
2021/11/05 10:02:14;;;;;;;52.20;29.37;;;;;;;14.42;100.00;100231.70;1676590;85;21826;-70
2021/11/05 10:04:40;;;;;;;;;;;;;;;14.44;100.00;100227.16;1734677;82;21032;-70
2021/11/05 10:07:09;;;;;;;53.90;27.48;;;;;;;14.45;100.00;100216.96;1724770;83;20908;-71
2021/11/05 10:09:40;;;;;;;;;;;;;;;14.45;100.00;100212.98;1727778;82;21055;-70
2021/11/05 10:12:18;;;;;;;56.58;27.67;;;;;;;14.47;100.00;100203.16;1728995;82;20174;-69
2021/11/05 10:14:49;;;;;;;53.75;26.93;;;;;;;14.51;100.00;100200.34;1741965;82;21054;-70
2021/11/05 10:17:16;;;;;;;54.50;27.65;;;;;;;14.55;100.00;100191.34;1712239;82;21072;-70
2021/11/05 10:19:54;;;;;;;54.83;28.15;;;;;;;14.61;100.00;100191.03;1742204;82;21062;-70
2021/11/05 10:22:49;;;;;;;53.70;27.98;;;;;;;14.66;100.00;100211.03;1742604;81;21112;-71
2021/11/05 10:25:27;;;;;;;50.20;27.65;;;;;;;14.71;100.00;100210.80;1712309;82;21124;-71
2021/11/05 10:28:19;;;;;;;61.70;26.52;;;;;;;14.76;100.00;100211.40;1747611;81;21132;-69
2021/11/05 10:30:54;;;;;;;51.63;26.68;;;;;;;14.84;100.00;100206.56;1735361;82;21162;-70
2021/11/05 10:33:31;;;;;;;55.83;28.17;;;;;;;14.90;100.00;100216.81;1717809;83;21101;-70
2021/11/05 10:35:59;;;;;;;41.68;24.12;;;;;;;14.98;100.00;100218.23;1717021;83;21066;-71
2021/11/05 10:38:26;;;;;;;51.83;26.95;;;;;;;15.05;100.00;100218.28;1718176;83;21079;-72
2021/11/05 10:40:56;;;;;;;45.95;26.60;;;;;;;15.13;100.00;100225.33;1718146;83;21146;-71
2021/11/05 10:43:36;;;;;;;49.05;25.50;;;;;;;15.14;100.00;100232.38;1718033;83;21066;-70
2021/11/05 10:46:04;;;;;;;44.73;24.82;;;;;;;15.13;100.00;100226.66;1718236;83;21069;-71
2021/11/05 10:48:36;;;;;;;42.75;23.80;;;;;;;15.09;100.00;100218.03;1718108;83;21537;-70
2021/11/05 10:51:03;;;;;;;46.30;24.67;;;;;;;15.07;100.00;100200.02;1692250;83;21043;-69
2021/11/05 10:53:37;;;;;;;47.90;26.80;;;;;;;15.05;100.00;100201.04;1718013;83;21120;-71
2021/11/05 10:56:08;;;;;;;36.73;21.42;;;;;;;15.03;100.00;100188.33;1717210;83;21099;-72
2021/11/05 10:58:42;;;;;;;48.70;25.02;;;;;;;15.03;100.00;100181.70;1717719;83;21629;-71
2021/11/05 11:01:12;;;;;;;49.50;26.95;;;;;;;15.05;100.00;100209.00;1717844;83;21125;-69
2021/11/05 11:03:49;;;;;;;43.25;23.20;;;;;;;15.07;100.00;100220.38;1735389;82;21038;-71
2021/11/05 11:06:37;;;;;;;49.58;26.15;;;;;;;15.08;100.00;100214.13;1718123;83;21130;-71